Flight Track Log - Related Links

Times and Time Zones

All times are in EDT time to prevent confusion due to time zone crossing. See the EGF3418 flight status page for this flight to view local times or setup timezone preferences in your user account.

Time Position Orientation Groundspeed Altitude Reporting Facility
EDT Latitude Longitude Course Direction KTS MPH feet Rate Location/Type
Sat 03:49:15 PM 32.8667 -97.0500 308° West 175 201 1,800  Level Dallas / Fort Worth TRACON
Sat 03:50:15 PM 32.8167 -97.0667 196° South 235 270 4,200 2,697 Climbing Dallas / Fort Worth TRACON
Sat 03:51:00 PM 32.7746 -97.2460 307° West  Level FlightAware Approximate
Sat 03:51:04 PM 32.7667 -97.1000 209° Southwest 248 285 6,700  Level Dallas / Fort Worth TRACON
Sat 03:52:00 PM 32.8311 -97.3364 307° West  Level FlightAware Approximate
Sat 03:52:10 PM 32.8000 -97.2000 292° West 294 338 9,300  Level Dallas / Fort Worth TRACON
Sat 03:52:56 PM 32.8375 -97.2575 308° West 299 344 10,600 1,358 Climbing Fort Worth Center
Sat 03:53:00 PM 32.8892 -97.4254 308° West  Level FlightAware Approximate
Sat 03:53:56 PM 32.8875 -97.3542 302° West 323 372 11,700  Level Fort Worth Center
Sat 03:54:00 PM 32.9480 -97.5137 308° West  Level FlightAware Approximate
Sat 03:54:56 PM 32.9419 -97.4556 303° West 352 405 12,800  Level Fort Worth Center
Sat 03:55:56 PM 32.9981 -97.5597 303° West 368 423 14,300 1,400 Climbing Fort Worth Center
Sat 03:56:56 PM 33.0564 -97.6686 303° West 383 441 15,600 1,300 Climbing Fort Worth Center
Sat 03:57:56 PM 33.1000 -97.7631 299° West 376 433 16,900 1,500 Climbing Fort Worth Center
Sat 03:58:56 PM 33.1392 -97.8897 290° West 366 421 18,600 1,550 Climbing Fort Worth Center
Sat 03:59:56 PM 33.1722 -97.9917 291° West 371 427 20,000 1,700 Climbing Fort Worth Center
Sat 04:00:56 PM 33.2114 -98.1186 290° West 366 421 22,000 1,950 Climbing Fort Worth Center
Sat 04:01:56 PM 33.2481 -98.2306 291° West 371 427 23,900 1,850 Climbing Fort Worth Center
Sat 04:02:56 PM 33.2808 -98.3353 291° West 357 411 25,700 1,400 Climbing Fort Worth Center
Sat 04:03:56 PM 33.3092 -98.4325 289° West 340 391 26,700 1,050 Climbing Fort Worth Center
Sat 04:04:56 PM 33.3478 -98.5550 291° West 346 398 27,800 1,050 Climbing Fort Worth Center
Sat 04:05:56 PM 33.3822 -98.6672 290° West 359 413 28,800 1,000 Climbing Fort Worth Center
Sat 04:06:56 PM 33.4186 -98.7847 290° West 366 421 29,800 1,150 Climbing Fort Worth Center
Sat 04:07:56 PM 33.4550 -98.8997 291° West 371 427 31,100 1,100 Climbing Fort Worth Center
Sat 04:08:56 PM 33.4908 -99.0225 289° West 371 427 32,000 450 Climbing Fort Worth Center
Sat 04:09:56 PM 33.5289 -99.1478 290° West 384 442 32,000 700 Level Fort Worth Center
Sat 04:10:56 PM 33.5689 -99.2758 291° West 403 464 33,400 1,000 Climbing Fort Worth Center
Sat 04:11:56 PM 33.6067 -99.4011 290° West 410 472 34,000 300 Climbing Fort Worth Center
Sat 04:12:56 PM 33.6778 -99.5103 308° West 410 472 34,000  Level Fort Worth Center
Sat 04:13:56 PM 33.7639 -99.6072 317° Northwest 415 478 34,000  Level Fort Worth Center
Sat 04:14:56 PM 33.8517 -99.7069 317° Northwest 420 483 34,000  Level Fort Worth Center
Sat 04:15:56 PM 33.9356 -99.8017 317° Northwest 420 483 34,000  Level Fort Worth Center
Sat 04:16:56 PM 34.0192 -99.8942 317° Northwest 415 478 34,000  Level Fort Worth Center
Sat 04:17:56 PM 34.1069 -99.9919 317° Northwest 415 478 34,000 -300 Level Fort Worth Center
Sat 04:18:56 PM 34.1925 -100.0925 316° Northwest 420 483 33,400 -1,452 Descending Fort Worth Center
Sat 04:21:02 PM 34.3600 -100.2778 318° Northwest 421 484 29,500 -1,883 Descending Albuquerque Center
Sat 04:22:04 PM 34.4333 -100.3914 308° West 429 494 27,500 -2,146 Descending Albuquerque Center
Sat 04:23:05 PM 34.5194 -100.5292 307° West 427 491 25,100 -1,951 Descending Albuquerque Center
Sat 04:24:07 PM 34.5906 -100.6428 307° West 427 491 23,500 -1,742 Descending Albuquerque Center
Sat 04:25:09 PM 34.6586 -100.7536 307° West 419 482 21,500 -1,951 Descending Albuquerque Center
Sat 04:26:10 PM 34.7253 -100.8606 307° West 408 470 19,500 -2,049 Descending Albuquerque Center
Sat 04:27:12 PM 34.7881 -100.9642 306° West 389 448 17,300 -2,081 Descending Albuquerque Center
Sat 04:28:14 PM 34.8486 -101.0633 307° West 373 429 15,200 -2,000 Descending Albuquerque Center
Sat 04:29:15 PM 34.9139 -101.1594 310° West 368 423 13,200 -2,000 Descending Albuquerque Center
Sat 04:30:17 PM 35.0056 -101.2425 323° Northwest 343 395 11,100 -1,707 Descending Albuquerque Center
Sat 04:31:18 PM 35.0739 -101.3036 324° Northwest 318 366 9,700 -1,415 Descending Albuquerque Center
Sat 04:32:20 PM 35.1383 -101.3647 322° Northwest 306 352 8,200 -1,161 Descending Albuquerque Center
Sat 04:33:22 PM 35.2000 -101.4278 320° Northwest 297 342 7,300 -871 Descending Albuquerque Center

Login

Don't have an account? Register now (free) for customized features, flight alerts, and more!